Time;durP1;ratioP1;P1;durP2;ratioP2;P2;SDS_P1;SDS_P2;PMS_P1;PMS_P2;Temp;Humidity;BMP_temperature;BMP_pressure;BME280_temperature;BME280_humidity;BME280_pressure;Samples;Min_cycle;Max_cycle;Signal;HPM_P1;HPM_P2
2020/12/01 00:01:22;;;;;;;11.48;5.22;;;;;;;9.71;61.81;100854.19;5019911;28;20037;-67
2020/12/01 00:03:47;;;;;;;8.23;4.78;;;;;;;9.76;61.73;100849.81;5021479;28;20034;-68
2020/12/01 00:06:13;;;;;;;9.27;4.65;;;;;;;9.46;62.88;100852.63;5019926;28;20056;-68
2020/12/01 00:08:38;;;;;;;12.80;5.75;;;;;;;9.26;63.74;100853.59;5020826;28;20034;-67
2020/12/01 00:11:05;;;;;;;10.13;5.00;;;;;;;9.68;62.36;100851.59;5020988;28;20034;-67
2020/12/01 00:13:31;;;;;;;10.23;4.82;;;;;;;9.56;62.79;100846.53;5021933;28;20394;-68
2020/12/01 00:15:56;;;;;;;10.45;5.57;;;;;;;9.37;62.92;100845.78;5020934;28;20056;-66
2020/12/01 00:18:22;;;;;;;8.98;4.82;;;;;;;9.50;62.79;100851.75;5018905;28;20090;-68
2020/12/01 00:20:48;;;;;;;11.38;5.57;;;;;;;9.60;62.71;100848.25;5018204;28;20033;-68
2020/12/01 00:23:13;;;;;;;8.57;5.28;;;;;;;9.77;62.31;100846.34;5021658;28;20525;-67
2020/12/01 00:25:39;;;;;;;12.02;5.70;;;;;;;9.68;62.78;100845.59;5021950;28;20064;-67
2020/12/01 00:28:04;;;;;;;12.10;5.80;;;;;;;9.28;63.50;100848.44;5025933;28;20116;-67
2020/12/01 00:30:30;;;;;;;11.57;5.70;;;;;;;9.49;63.53;100840.56;5021460;28;20068;-69
2020/12/01 00:32:55;;;;;;;10.57;6.20;;;;;;;9.52;63.28;100848.28;5019264;28;20442;-67
2020/12/01 00:35:28;;;;;;;10.40;5.38;;;;;;;9.19;64.39;100844.19;5016650;28;20494;-66
2020/12/01 00:37:54;;;;;;;12.90;5.82;;;;;;;9.31;64.33;100840.66;5020569;28;20041;-70
2020/12/01 00:40:21;;;;;;;13.43;6.32;;;;;;;10.03;61.90;100841.88;5018634;28;20034;-67
2020/12/01 00:42:46;;;;;;;11.25;5.60;;;;;;;9.84;62.56;100836.00;5017122;28;20538;-69
2020/12/01 00:45:14;;;;;;;12.57;6.18;;;;;;;9.94;61.98;100832.47;5020833;28;20136;-66
2020/12/01 00:47:40;;;;;;;12.02;7.05;;;;;;;9.84;62.37;100836.00;5019848;28;20096;-67
2020/12/01 00:50:08;;;;;;;13.68;6.68;;;;;;;9.76;62.58;100841.22;5021619;28;20502;-67
2020/12/01 00:52:33;;;;;;;14.90;7.00;;;;;;;10.01;61.85;100839.28;5025248;28;20080;-67
2020/12/01 00:54:59;;;;;;;10.70;5.78;;;;;;;10.11;61.66;100840.06;5021147;28;20065;-68
2020/12/01 00:57:24;;;;;;;13.43;6.05;;;;;;;9.88;62.38;100837.69;5019936;28;20034;-67
2020/12/01 00:59:51;;;;;;;10.50;6.60;;;;;;;9.84;62.85;100842.00;5002874;28;20093;-69
2020/12/01 01:02:23;;;;;;;14.88;6.57;;;;;;;10.04;62.39;100833.25;5022533;28;20036;-67
2020/12/01 01:04:49;;;;;;;12.35;6.70;;;;;;;9.87;62.61;100833.41;5028421;28;20029;-69
2020/12/01 01:07:15;;;;;;;12.98;6.40;;;;;;;10.11;62.29;100829.72;5022023;28;20538;-67
2020/12/01 01:09:40;;;;;;;9.23;5.65;;;;;;;10.27;61.78;100830.41;5021080;28;20121;-68
2020/12/01 01:12:06;;;;;;;11.73;5.68;;;;;;;10.32;61.57;100832.13;5009815;28;20033;-67
2020/12/01 01:14:32;;;;;;;12.32;6.10;;;;;;;10.08;62.21;100832.34;5021965;28;20033;-67
2020/12/01 01:16:57;;;;;;;10.70;6.38;;;;;;;10.13;62.02;100823.66;5007182;28;20037;-67
2020/12/01 01:19:23;;;;;;;12.38;7.20;;;;;;;10.11;62.42;100832.31;5008362;28;20037;-67
2020/12/01 01:21:48;;;;;;;12.45;5.72;;;;;;;10.39;61.67;100830.34;5022413;28;20097;-69
2020/12/01 01:24:18;;;;;;;13.65;7.13;;;;;;;10.36;61.43;100830.38;5023489;28;20056;-68
2020/12/01 01:26:52;;;;;;;15.32;6.65;;;;;;;10.55;61.00;100828.44;5023293;28;20049;-67
2020/12/01 01:29:19;;;;;;;13.27;6.28;;;;;;;10.56;61.31;100838.75;5027134;28;20045;-68
2020/12/01 01:31:45;;;;;;;11.73;6.15;;;;;;;10.52;61.20;100834.50;5020436;28;20047;-68
2020/12/01 01:34:11;;;;;;;14.57;6.45;;;;;;;10.72;60.65;100823.09;5023547;28;20041;-68
2020/12/01 01:36:37;;;;;;;13.50;6.30;;;;;;;10.73;60.62;100829.94;5020994;28;20037;-67
2020/12/01 01:39:05;;;;;;;16.65;6.97;;;;;;;10.34;61.95;100832.97;5024093;28;20064;-68
2020/12/01 01:41:32;;;;;;;15.02;8.13;;;;;;;10.61;61.51;100833.53;5021685;28;20743;-69
2020/12/01 01:43:58;;;;;;;12.90;6.78;;;;;;;10.44;61.92;100825.97;5024325;28;20029;-68
2020/12/01 01:46:38;;;;;;;14.70;6.82;;;;;;;10.51;61.69;100831.94;5023923;28;20095;-67
2020/12/01 01:49:07;;;;;;;13.75;6.22;;;;;;;10.50;61.90;100831.06;5025804;28;20664;-67
2020/12/01 01:51:35;;;;;;;12.63;6.80;;;;;;;10.70;61.44;100824.81;5022262;28;20034;-67
2020/12/01 01:54:02;;;;;;;11.68;7.10;;;;;;;10.38;62.09;100824.31;5011929;28;20033;-68
2020/12/01 01:56:31;;;;;;;13.02;6.63;;;;;;;10.74;61.25;100836.84;5005007;28;20419;-67
2020/12/01 01:58:58;;;;;;;18.08;7.15;;;;;;;10.82;60.94;100826.41;5022323;28;20029;-68
2020/12/01 02:01:27;;;;;;;10.23;6.35;;;;;;;10.80;60.99;100829.00;5021906;28;20562;-66
2020/12/01 02:03:56;;;;;;;13.77;7.05;;;;;;;10.44;62.78;100833.72;5023986;28;20037;-67
2020/12/01 02:06:45;;;;;;;11.98;7.22;;;;;;;10.60;62.23;100829.22;5021030;28;20045;-68
2020/12/01 02:09:13;;;;;;;14.20;7.47;;;;;;;10.55;62.43;100829.28;5022334;28;20407;-67
2020/12/01 02:11:41;;;;;;;14.15;7.45;;;;;;;10.87;61.25;100833.19;5022015;28;20041;-68
2020/12/01 02:14:22;;;;;;;13.82;7.25;;;;;;;10.88;61.23;100822.00;5022980;28;20021;-67
2020/12/01 02:16:53;;;;;;;11.35;7.28;;;;;;;10.93;61.06;100827.97;5039686;28;20044;-67
2020/12/01 02:19:26;;;;;;;14.55;8.18;;;;;;;10.72;61.58;100823.94;5023869;28;20041;-68
2020/12/01 02:21:55;;;;;;;11.77;6.63;;;;;;;10.81;61.61;100833.31;5022799;28;20041;-68
2020/12/01 02:24:22;;;;;;;17.40;7.47;;;;;;;10.80;61.49;100829.84;5020832;28;20029;-68
2020/12/01 02:26:56;;;;;;;13.13;7.32;;;;;;;10.93;61.57;100827.13;5022829;28;20118;-68
2020/12/01 02:29:25;;;;;;;13.82;7.85;;;;;;;10.94;61.38;100823.63;5024837;28;20060;-67
2020/12/01 02:31:51;;;;;;;13.40;7.07;;;;;;;10.91;61.71;100832.28;5022016;28;20318;-68
2020/12/01 02:34:21;;;;;;;18.77;7.60;;;;;;;11.06;61.20;100838.16;5034597;28;20482;-66
2020/12/01 02:36:47;;;;;;;15.75;8.25;;;;;;;11.08;61.23;100826.06;5021910;28;20543;-66
2020/12/01 02:39:17;;;;;;;13.50;6.72;;;;;;;11.13;61.32;100839.78;5022484;28;20120;-67
2020/12/01 02:41:42;;;;;;;11.85;6.68;;;;;;;11.20;61.12;100829.31;5022808;28;20040;-67
2020/12/01 02:44:07;;;;;;;10.35;6.47;;;;;;;11.19;61.09;100840.56;5022167;28;20042;-68
2020/12/01 02:46:36;;;;;;;10.57;6.65;;;;;;;11.34;60.91;100838.59;5021172;28;20046;-68
2020/12/01 02:49:05;;;;;;;12.30;6.45;;;;;;;11.35;60.78;100841.19;5020309;28;20037;-67
2020/12/01 02:51:32;;;;;;;14.27;7.55;;;;;;;11.39;60.68;100837.69;5026713;28;20091;-67
2020/12/01 02:53:57;;;;;;;11.13;5.97;;;;;;;11.35;61.24;100841.19;5024955;28;20037;-68
2020/12/01 02:56:22;;;;;;;9.50;5.47;;;;;;;11.55;60.31;100840.03;5018375;28;20076;-68
2020/12/01 02:58:48;;;;;;;11.65;5.53;;;;;;;11.52;60.46;100838.34;5025819;28;20057;-67
2020/12/01 03:01:13;;;;;;;12.18;5.68;;;;;;;11.63;60.22;100835.56;5009387;28;20049;-68
2020/12/01 03:03:39;;;;;;;11.52;6.03;;;;;;;11.60;60.43;100836.47;5036772;28;20064;-67
2020/12/01 03:06:10;;;;;;;7.68;4.57;;;;;;;11.65;60.14;100844.19;5021905;28;20034;-68
2020/12/01 03:08:36;;;;;;;12.45;5.32;;;;;;;11.54;60.98;100836.59;5018969;28;20052;-67
2020/12/01 03:11:01;;;;;;;10.07;6.07;;;;;;;11.67;60.60;100837.25;5021279;28;20125;-67
2020/12/01 03:13:27;;;;;;;9.48;5.90;;;;;;;11.62;61.03;100839.06;5021656;28;20076;-68
2020/12/01 03:15:54;;;;;;;12.35;5.68;;;;;;;11.65;61.12;100849.34;5003589;28;20034;-68
2020/12/01 03:18:20;;;;;;;11.43;5.22;;;;;;;11.79;61.06;100851.75;5021525;28;20099;-67
2020/12/01 03:20:45;;;;;;;12.52;5.07;;;;;;;11.84;61.11;100853.38;5018226;28;20025;-67
2020/12/01 03:23:11;;;;;;;12.73;4.97;;;;;;;11.76;61.50;100852.63;5020894;28;20124;-67
2020/12/01 03:25:36;;;;;;;11.52;4.45;;;;;;;11.93;61.57;100851.53;5019081;28;20113;-68
2020/12/01 03:28:01;;;;;;;10.60;3.90;;;;;;;12.04;61.42;100852.22;5016588;28;20072;-68
2020/12/01 03:30:27;;;;;;;12.63;3.35;;;;;;;12.07;61.88;100852.16;5018675;28;20453;-68
2020/12/01 03:32:53;;;;;;;8.75;3.38;;;;;;;12.20;61.64;100856.25;5019543;28;20395;-68
2020/12/01 03:35:19;;;;;;;11.85;3.45;;;;;;;12.29;61.83;100862.16;5003665;28;20403;-67
2020/12/01 03:37:44;;;;;;;14.30;4.22;;;;;;;12.41;61.17;100865.38;5019817;28;20051;-69
2020/12/01 03:40:09;;;;;;;9.40;3.75;;;;;;;12.46;61.55;100850.59;5023598;28;20044;-67
2020/12/01 03:42:35;;;;;;;7.47;3.05;;;;;;;12.46;61.46;100860.09;5019615;28;20539;-69
2020/12/01 03:45:00;;;;;;;7.18;3.05;;;;;;;12.45;61.40;100858.38;5021981;28;20041;-68
2020/12/01 03:47:26;;;;;;;11.13;2.20;;;;;;;12.31;62.17;100860.38;5018246;28;20059;-69
2020/12/01 03:49:51;;;;;;;8.43;2.80;;;;;;;12.55;61.24;100854.75;5021246;28;20034;-69
2020/12/01 03:52:17;;;;;;;8.82;1.88;;;;;;;12.51;62.03;100863.44;5019529;28;20045;-67
2020/12/01 03:54:42;;;;;;;6.10;1.83;;;;;;;12.53;61.91;100861.69;5004309;28;20064;-67
2020/12/01 03:57:07;;;;;;;8.95;2.22;;;;;;;12.61;61.64;100859.81;5006683;28;20148;-67
2020/12/01 03:59:33;;;;;;;5.57;1.98;;;;;;;12.71;61.05;100862.22;5019745;28;20643;-68
2020/12/01 04:01:58;;;;;;;12.52;2.55;;;;;;;12.78;60.88;100869.00;5007672;28;20618;-68
2020/12/01 04:04:28;;;;;;;9.65;1.80;;;;;;;12.65;61.61;100870.97;5018753;28;20033;-68
2020/12/01 04:06:55;;;;;;;7.03;1.38;;;;;;;12.74;61.51;100864.75;5023040;28;20038;-67
2020/12/01 04:09:21;;;;;;;7.45;2.05;;;;;;;12.72;61.67;100869.09;5022140;28;20045;-68
2020/12/01 04:11:47;;;;;;;8.70;2.25;;;;;;;12.90;61.05;100866.13;5019536;28;20035;-68
2020/12/01 04:14:12;;;;;;;5.03;1.77;;;;;;;12.78;61.33;100880.22;5023879;28;20490;-67
2020/12/01 04:16:38;;;;;;;7.30;1.90;;;;;;;12.81;61.16;100877.53;5018708;28;20530;-68
2020/12/01 04:19:03;;;;;;;9.93;1.95;;;;;;;12.82;61.14;100879.28;5021869;28;20542;-67
2020/12/01 04:21:28;;;;;;;7.38;1.55;;;;;;;12.87;60.91;100886.97;5006743;28;20041;-68
2020/12/01 04:23:54;;;;;;;11.07;2.00;;;;;;;12.81;61.01;100887.06;5022419;28;20102;-68
2020/12/01 04:26:22;;;;;;;11.35;1.45;;;;;;;12.80;61.27;100885.38;5016829;28;20109;-67
2020/12/01 04:28:47;;;;;;;5.70;1.20;;;;;;;12.90;61.02;100891.22;5019311;28;20076;-68
2020/12/01 04:31:13;;;;;;;11.40;1.63;;;;;;;12.82;61.21;100888.81;5017144;28;20467;-69
2020/12/01 04:33:39;;;;;;;10.55;1.45;;;;;;;12.74;61.79;100891.53;5018637;28;20025;-67
2020/12/01 04:36:04;;;;;;;11.25;1.00;;;;;;;12.88;61.16;100893.84;5022035;28;20072;-67
2020/12/01 04:38:30;;;;;;;5.45;1.48;;;;;;;12.81;61.23;100889.66;5010525;28;20044;-68
2020/12/01 04:40:56;;;;;;;7.95;0.93;;;;;;;12.74;61.66;100899.31;5020170;28;20036;-68
2020/12/01 04:43:30;;;;;;;5.20;0.93;;;;;;;12.93;60.99;100902.41;5015491;28;20029;-67
2020/12/01 04:45:56;;;;;;;4.43;0.77;;;;;;;12.79;61.77;100900.09;5018938;28;20033;-68
2020/12/01 04:48:38;;;;;;;11.05;1.05;;;;;;;12.85;61.30;100905.13;5019356;28;20045;-67
2020/12/01 04:51:49;;;;;;;1.55;1.00;;;;;;;12.78;62.03;100907.91;5019531;28;20511;-68
2020/12/01 04:54:20;;;;;;;10.80;1.17;;;;;;;12.85;61.53;100904.28;5019991;28;20438;-68
2020/12/01 04:57:02;;;;;;;5.47;0.55;;;;;;;12.95;61.55;100910.13;5019572;28;20120;-69
2020/12/01 04:59:34;;;;;;;2.92;1.05;;;;;;;13.02;61.18;100914.34;5020610;28;20057;-67
2020/12/01 05:02:14;;;;;;;3.58;1.20;;;;;;;12.97;61.55;100917.03;5021107;28;20037;-67
2020/12/01 05:05:04;;;;;;;5.20;0.50;;;;;;;13.05;61.63;100916.88;5021601;28;20063;-68
2020/12/01 05:08:12;;;;;;;3.70;0.70;;;;;;;13.17;61.20;100921.81;5022220;28;20048;-68
2020/12/01 05:10:43;;;;;;;6.95;0.60;;;;;;;13.07;61.48;100923.72;5018957;28;20033;-67
2020/12/01 05:13:18;;;;;;;2.25;0.65;;;;;;;13.16;61.33;100930.47;5021816;28;20125;-65
2020/12/01 05:15:48;;;;;;;1.90;0.30;;;;;;;13.26;60.94;100925.94;5034747;28;20028;-67
2020/12/01 05:18:33;;;;;;;2.47;0.22;;;;;;;13.25;61.39;100934.63;5019478;28;20507;-67
2020/12/01 05:21:01;;;;;;;4.40;0.50;;;;;;;13.28;61.32;100939.75;5022708;28;20041;-68
2020/12/01 05:23:40;;;;;;;2.65;0.30;;;;;;;13.29;61.13;100939.75;5017106;28;20047;-68
2020/12/01 05:26:08;;;;;;;1.23;0.47;;;;;;;13.35;60.98;100935.31;5020681;28;20502;-67
2020/12/01 05:28:48;;;;;;;2.63;0.20;;;;;;;13.36;60.78;100935.28;5018963;28;20033;-66
2020/12/01 05:31:15;;;;;;;2.90;0.50;;;;;;;13.39;61.00;100939.53;5017870;28;20042;-68
2020/12/01 05:33:41;;;;;;;2.00;1.27;;;;;;;13.36;61.01;100948.25;5020549;28;20026;-68
2020/12/01 05:36:19;;;;;;;2.00;0.55;;;;;;;13.41;60.56;100945.56;5005774;28;20038;-67
2020/12/01 05:38:59;;;;;;;3.35;0.57;;;;;;;13.36;60.81;100952.59;5018692;28;20041;-68
2020/12/01 05:41:37;;;;;;;3.10;1.13;;;;;;;13.33;60.89;100956.13;5018317;28;20037;-68
2020/12/01 05:44:16;;;;;;;5.15;1.30;;;;;;;13.31;61.04;100964.81;5018852;28;20391;-67
2020/12/01 05:46:55;;;;;;;3.70;0.35;;;;;;;13.32;61.39;100972.56;5019117;28;20505;-68
2020/12/01 05:49:42;;;;;;;1.60;0.93;;;;;;;13.34;60.93;100980.34;5019441;28;20037;-68
2020/12/01 05:52:17;;;;;;;2.47;0.47;;;;;;;13.38;61.09;100988.03;5023634;28;20148;-67
2020/12/01 05:54:45;;;;;;;2.83;1.05;;;;;;;13.33;61.10;100992.47;5025553;28;20081;-68
2020/12/01 05:57:24;;;;;;;3.28;0.40;;;;;;;13.29;61.15;100988.22;5007391;28;20581;-68
2020/12/01 05:59:53;;;;;;;0.82;0.30;;;;;;;13.09;61.98;100986.84;5020038;28;20399;-68
2020/12/01 06:02:29;;;;;;;5.63;0.47;;;;;;;13.06;61.81;100997.28;5007436;28;20037;-67
2020/12/01 06:04:56;;;;;;;5.65;0.88;;;;;;;13.31;60.92;100998.53;5028961;28;20037;-68
2020/12/01 06:07:26;;;;;;;3.90;0.85;;;;;;;13.31;60.99;100999.44;5020321;28;20041;-68
2020/12/01 06:10:06;;;;;;;3.70;0.75;;;;;;;13.18;61.43;101010.91;5022980;28;20032;-69
2020/12/01 06:12:32;;;;;;;6.68;1.13;;;;;;;13.22;61.16;101008.22;5021654;28;20042;-67
2020/12/01 06:15:00;;;;;;;4.50;0.77;;;;;;;13.25;61.11;101018.53;5020233;28;20108;-67
2020/12/01 06:17:50;;;;;;;6.13;1.58;;;;;;;13.06;61.13;101015.44;5022231;28;20037;-67
2020/12/01 06:20:28;;;;;;;6.43;1.38;;;;;;;13.22;60.90;101022.94;5022226;28;20475;-68
2020/12/01 06:23:15;;;;;;;3.50;1.23;;;;;;;13.24;60.57;101026.38;5023614;28;20028;-68
2020/12/01 06:25:53;;;;;;;6.88;2.33;;;;;;;13.15;60.85;101029.09;5020471;28;20409;-67
2020/12/01 06:28:46;;;;;;;6.45;2.63;;;;;;;13.08;60.94;101037.03;5021924;28;20029;-67
2020/12/01 06:31:20;;;;;;;8.75;3.17;;;;;;;13.03;60.86;101031.06;5026395;28;20122;-67
2020/12/01 06:34:01;;;;;;;9.60;3.67;;;;;;;12.87;61.24;101035.66;5021468;28;20037;-68
2020/12/01 06:36:39;;;;;;;8.60;3.83;;;;;;;12.99;60.88;101042.38;5020774;28;20041;-68
2020/12/01 06:39:17;;;;;;;7.63;4.05;;;;;;;12.90;60.63;101052.06;5023672;28;20088;-68
2020/12/01 06:42:14;;;;;;;10.30;4.40;;;;;;;12.77;61.02;101052.28;5008627;28;20483;-66
2020/12/01 06:44:44;;;;;;;10.57;4.97;;;;;;;12.72;60.60;101058.41;5021567;28;20139;-68
2020/12/01 06:47:10;;;;;;;8.50;4.75;;;;;;;12.71;60.80;101067.94;5022844;28;20034;-68
2020/12/01 06:49:37;;;;;;;10.65;5.18;;;;;;;12.74;60.38;101072.22;5020014;28;20048;-67
2020/12/01 06:52:13;;;;;;;13.52;6.55;;;;;;;12.66;60.56;101070.63;5020163;28;20406;-68
2020/12/01 06:54:55;;;;;;;13.88;6.28;;;;;;;12.61;60.57;101074.16;5023334;28;20554;-68
2020/12/01 06:57:31;;;;;;;13.07;5.68;;;;;;;12.59;60.82;101078.50;5037016;28;20041;-68
2020/12/01 06:59:56;;;;;;;13.75;5.93;;;;;;;12.62;60.38;101084.50;5019686;28;20034;-67
2020/12/01 07:02:22;;;;;;;12.25;5.93;;;;;;;12.63;60.43;101093.13;5002512;28;20075;-67
2020/12/01 07:04:47;;;;;;;13.40;6.68;;;;;;;12.53;60.47;101091.59;5023391;28;20475;-68
2020/12/01 07:07:27;;;;;;;12.80;5.88;;;;;;;12.54;60.64;101101.06;5023864;28;20057;-68
2020/12/01 07:09:53;;;;;;;13.45;6.55;;;;;;;12.45;60.34;101104.66;5024892;28;20041;-67
2020/12/01 07:12:53;;;;;;;12.52;6.72;;;;;;;12.48;60.36;101112.41;5018064;28;20399;-67
2020/12/01 07:15:45;;;;;;;17.42;7.22;;;;;;;12.46;60.25;101114.16;5023078;28;20049;-67
2020/12/01 07:18:45;;;;;;;14.23;7.00;;;;;;;12.44;60.49;101123.69;5021117;28;20077;-67
2020/12/01 07:21:45;;;;;;;13.80;6.50;;;;;;;12.45;60.38;101134.03;5024383;28;20059;-67
2020/12/01 07:24:38;;;;;;;12.48;5.68;;;;;;;12.36;60.84;101143.66;5021595;28;20506;-68
2020/12/01 07:27:32;;;;;;;16.48;7.32;;;;;;;12.36;60.15;101139.34;5020869;28;20041;-66
2020/12/01 07:30:07;;;;;;;10.40;5.55;;;;;;;12.18;60.85;101157.72;5019168;28;20034;-67
2020/12/01 07:33:12;;;;;;;14.88;6.32;;;;;;;12.24;60.44;101155.91;5023972;28;20050;-67
2020/12/01 07:35:48;;;;;;;15.38;7.22;;;;;;;12.17;60.85;101164.66;5020815;28;20658;-66
2020/12/01 07:38:29;;;;;;;14.68;7.00;;;;;;;12.10;61.24;101165.63;5021606;28;20701;-69
2020/12/01 07:41:23;;;;;;;14.43;6.50;;;;;;;12.07;60.87;101168.22;5018798;28;20033;-67
2020/12/01 07:44:05;;;;;;;15.60;6.15;;;;;;;12.11;60.93;101177.69;5019619;28;20054;-67
2020/12/01 07:46:40;;;;;;;12.00;6.53;;;;;;;12.20;60.67;101179.31;5019433;28;20034;-68
2020/12/01 07:49:05;;;;;;;13.77;6.30;;;;;;;12.22;60.39;101190.50;5024646;28;20113;-68
2020/12/01 07:51:31;;;;;;;16.45;6.65;;;;;;;12.10;61.04;101199.31;5020778;28;20120;-65
2020/12/01 07:53:59;;;;;;;11.98;5.53;;;;;;;12.14;60.63;101195.78;5024695;28;20041;-67
2020/12/01 07:56:27;;;;;;;15.70;6.72;;;;;;;12.24;60.43;101207.75;5022233;28;20080;-67
2020/12/01 07:59:07;;;;;;;17.35;7.57;;;;;;;12.15;60.76;101205.28;5022608;28;20259;-68
2020/12/01 08:01:33;;;;;;;14.15;6.50;;;;;;;12.22;60.60;101206.06;5022528;28;20395;-68
2020/12/01 08:04:15;;;;;;;16.40;6.45;;;;;;;12.13;60.68;101213.94;5020168;28;20038;-68
2020/12/01 08:06:41;;;;;;;15.82;6.20;;;;;;;12.00;61.22;101219.25;5019958;28;20046;-67
2020/12/01 08:09:20;;;;;;;16.05;6.70;;;;;;;11.96;61.09;101221.91;5022956;28;20030;-67
2020/12/01 08:11:47;;;;;;;17.17;7.72;;;;;;;12.13;61.04;101227.75;5032633;28;20029;-67
2020/12/01 08:14:14;;;;;;;17.05;6.32;;;;;;;12.09;60.97;101233.84;5024719;28;20116;-67
2020/12/01 08:16:41;;;;;;;15.82;6.65;;;;;;;12.18;60.85;101232.88;5020636;28;20881;-67
2020/12/01 08:19:11;;;;;;;15.25;6.75;;;;;;;12.05;60.96;101240.78;5023880;28;20098;-68
2020/12/01 08:21:40;;;;;;;17.33;6.63;;;;;;;12.11;60.85;101242.47;5022427;28;20233;-67
2020/12/01 08:24:10;;;;;;;16.95;7.10;;;;;;;11.99;61.14;101247.78;5016872;28;20045;-67
2020/12/01 08:26:37;;;;;;;16.08;7.22;;;;;;;11.93;61.57;101256.47;5021296;28;20107;-67
2020/12/01 08:29:24;;;;;;;14.00;7.13;;;;;;;12.09;61.05;101258.91;5019481;28;20029;-67
2020/12/01 08:31:59;;;;;;;15.15;6.47;;;;;;;12.12;60.60;101270.06;5004876;28;20132;-68
2020/12/01 08:34:49;;;;;;;15.70;6.53;;;;;;;12.22;60.57;101276.88;5020901;28;20037;-67
2020/12/01 08:37:33;;;;;;;19.17;7.75;;;;;;;12.29;60.35;101271.63;5021266;28;20542;-67
2020/12/01 08:40:14;;;;;;;15.40;7.47;;;;;;;12.32;60.38;101271.59;5022624;28;20041;-68
2020/12/01 08:43:12;;;;;;;12.88;7.13;;;;;;;12.33;60.07;101289.72;5021139;28;20075;-68
2020/12/01 08:45:50;;;;;;;14.27;7.78;;;;;;;12.25;60.33;101288.94;5022787;28;20384;-67
2020/12/01 08:48:21;;;;;;;20.80;8.32;;;;;;;12.14;60.66;101293.38;5020085;28;20069;-66
2020/12/01 08:50:47;;;;;;;19.40;8.25;;;;;;;12.34;59.98;101303.53;5022871;28;20622;-67
2020/12/01 08:53:17;;;;;;;13.75;6.75;;;;;;;12.28;60.31;101294.13;5021243;28;20102;-67
2020/12/01 08:55:42;;;;;;;15.38;8.35;;;;;;;12.22;60.20;101305.38;5021042;28;20037;-67
2020/12/01 08:58:28;;;;;;;23.35;8.95;;;;;;;12.32;60.20;101298.38;5021531;28;20033;-67
2020/12/01 09:01:04;;;;;;;15.60;7.57;;;;;;;12.12;60.32;101306.34;5021559;28;20067;-67
2020/12/01 09:03:31;;;;;;;16.67;7.70;;;;;;;12.04;60.77;101310.78;5021374;28;20187;-67
2020/12/01 09:05:58;;;;;;;17.45;7.72;;;;;;;12.11;60.77;101312.41;5015376;28;20528;-68
2020/12/01 09:12:05;;;;;;;17.42;7.93;;;;;;;12.25;59.94;101322.63;5019362;28;20067;-68
2020/12/01 09:22:28;;;;;;;18.15;7.53;;;;;;;12.46;59.58;101344.91;5022995;28;20822;-67
2020/12/01 09:25:22;;;;;;;17.95;7.55;;;;;;;12.47;59.71;101349.19;5018134;28;20153;-67
2020/12/01 09:27:49;;;;;;;21.00;7.45;;;;;;;12.60;59.80;101350.78;5021377;28;20076;-67
2020/12/01 09:30:38;;;;;;;16.33;6.90;;;;;;;12.62;59.15;101361.97;5017244;28;20041;-68
2020/12/01 09:33:07;;;;;;;15.90;7.15;;;;;;;12.39;59.61;101364.84;5022641;28;20060;-67
2020/12/01 09:35:33;;;;;;;17.70;8.15;;;;;;;12.23;59.71;101377.09;5021691;28;20644;-67
2020/12/01 09:37:58;;;;;;;16.10;6.15;;;;;;;12.18;59.56;101373.66;5023700;28;20026;-67
2020/12/01 09:40:26;;;;;;;11.18;5.82;;;;;;;12.37;59.24;101374.38;5028015;28;20107;-65
2020/12/01 09:42:55;;;;;;;14.95;6.88;;;;;;;12.39;59.36;101382.09;5023986;28;20033;-67
2020/12/01 09:45:24;;;;;;;16.83;7.07;;;;;;;12.36;59.64;101384.75;5024090;28;20037;-67
2020/12/01 09:50:35;;;;;;;11.52;5.85;;;;;;;12.38;59.32;101390.78;5021044;28;20029;-67
2020/12/01 09:55:44;;;;;;;13.75;6.38;;;;;;;12.11;60.58;101391.91;5023868;28;20068;-68
2020/12/01 10:02:47;;;;;;;10.45;4.90;;;;;;;12.24;59.95;101389.16;5026330;28;20112;-67
2020/12/01 10:09:11;;;;;;;11.00;5.55;;;;;;;12.42;59.45;101408.00;5025144;28;20041;-67
2020/12/01 10:37:32;;;;;;;7.20;4.40;;;;;;;12.29;59.77;101450.47;5026622;28;20065;-66
2020/12/01 10:39:57;;;;;;;6.90;3.53;;;;;;;12.31;59.50;101461.69;5027054;28;20037;-67
2020/12/01 10:42:23;;;;;;;6.43;3.22;;;;;;;12.30;59.34;101467.72;5025386;28;20043;-67
2020/12/01 10:44:48;;;;;;;4.53;2.67;;;;;;;12.03;60.32;101467.97;5008106;28;20041;-67
2020/12/01 10:47:14;;;;;;;5.93;3.90;;;;;;;12.40;59.20;101464.19;5030503;28;20096;-69
2020/12/01 10:49:39;;;;;;;6.97;3.63;;;;;;;12.38;59.01;101474.56;5027729;28;20063;-68
2020/12/01 10:52:05;;;;;;;4.82;3.25;;;;;;;12.44;58.73;101479.72;5031854;28;20129;-68
2020/12/01 10:54:31;;;;;;;6.40;3.60;;;;;;;11.99;59.70;101473.19;5007089;28;20103;-67
2020/12/01 10:56:56;;;;;;;5.88;3.75;;;;;;;11.72;60.83;101481.94;5025360;28;20124;-67
2020/12/01 10:59:23;;;;;;;5.60;3.70;;;;;;;12.27;58.70;101491.09;5024957;28;20068;-67
2020/12/01 11:01:49;;;;;;;6.20;4.35;;;;;;;11.91;59.58;101487.91;5009841;28;23046;-67
2020/12/01 11:04:15;;;;;;;9.68;4.45;;;;;;;12.17;59.19;101490.31;5026126;28;20077;-68
2020/12/01 11:06:40;;;;;;;11.63;5.30;;;;;;;12.19;58.94;101494.63;5027164;28;20073;-68
2020/12/01 11:09:08;;;;;;;14.25;6.60;;;;;;;12.16;58.91;101494.63;5024628;28;20117;-67
2020/12/01 11:11:34;;;;;;;10.55;5.57;;;;;;;12.18;58.80;101503.25;5025666;28;20121;-67
2020/12/01 11:14:00;;;;;;;11.70;6.43;;;;;;;11.94;59.20;101503.41;5025245;28;20037;-68
2020/12/01 11:16:26;;;;;;;10.93;6.15;;;;;;;11.91;59.16;101508.63;5024388;28;20037;-68
2020/12/01 11:18:51;;;;;;;13.20;7.15;;;;;;;11.97;59.15;101517.22;5025234;28;20029;-68
2020/12/01 11:21:17;;;;;;;13.40;7.68;;;;;;;11.75;59.19;101519.03;5047315;28;20438;-69
2020/12/01 11:23:43;;;;;;;10.52;6.43;;;;;;;11.67;59.74;101525.13;5022054;28;20065;-67
2020/12/01 11:26:16;;;;;;;11.93;5.88;;;;;;;11.78;59.16;101526.78;5017196;28;20049;-67
2020/12/01 11:28:42;;;;;;;14.25;6.90;;;;;;;11.70;59.19;101530.28;5028140;28;20170;-68
2020/12/01 11:31:08;;;;;;;11.00;6.10;;;;;;;11.63;59.46;101532.91;5027400;28;20100;-68
2020/12/01 11:33:33;;;;;;;11.63;6.03;;;;;;;11.39;60.50;101539.06;5022473;28;20033;-69
2020/12/01 11:35:59;;;;;;;9.63;6.03;;;;;;;11.62;59.53;101543.28;5021710;28;20080;-70
2020/12/01 11:38:25;;;;;;;11.98;6.57;;;;;;;11.62;59.77;101535.50;5021679;28;20052;-66
2020/12/01 11:40:51;;;;;;;8.50;5.35;;;;;;;11.70;59.38;101541.53;5028590;28;20042;-66
2020/12/01 11:43:16;;;;;;;9.50;6.43;;;;;;;11.75;59.26;101546.69;5023972;28;20041;-67
2020/12/01 11:45:42;;;;;;;9.35;5.72;;;;;;;11.82;59.16;101550.94;5023666;28;20045;-69
2020/12/01 11:48:07;;;;;;;6.43;4.43;;;;;;;11.73;59.15;101549.25;5027705;28;20422;-68
2020/12/01 11:50:33;;;;;;;9.43;5.22;;;;;;;12.04;58.31;101551.72;5021609;28;20028;-69
2020/12/01 11:52:58;;;;;;;8.30;4.63;;;;;;;11.69;58.73;101560.50;5043494;28;20711;-68
2020/12/01 11:55:24;;;;;;;7.75;4.50;;;;;;;12.00;57.99;101555.19;5022906;28;20029;-66
2020/12/01 11:57:50;;;;;;;8.05;4.53;;;;;;;11.72;57.98;101557.03;5026573;28;20034;-68
2020/12/01 12:00:19;;;;;;;8.75;5.18;;;;;;;11.70;58.20;101567.41;5023795;28;20025;-67
2020/12/01 12:02:45;;;;;;;9.88;5.25;;;;;;;11.75;57.89;101570.84;5022867;28;20039;-67
2020/12/01 12:05:11;;;;;;;12.80;6.43;;;;;;;11.79;57.85;101566.53;5007522;28;20120;-70
2020/12/01 12:07:36;;;;;;;11.02;6.75;;;;;;;11.68;58.27;101574.31;5025323;28;20100;-70
2020/12/01 12:10:03;;;;;;;15.25;7.38;;;;;;;11.87;57.64;101574.22;5021443;28;20036;-69
2020/12/01 12:12:28;;;;;;;15.93;8.75;;;;;;;11.57;58.61;101583.88;5024834;28;20129;-69
2020/12/01 12:14:54;;;;;;;16.73;7.88;;;;;;;11.69;58.09;101581.22;5006170;28;20093;-67
2020/12/01 12:17:19;;;;;;;18.42;7.40;;;;;;;11.89;57.85;101575.97;5026040;28;20041;-68
2020/12/01 12:19:44;;;;;;;16.20;8.27;;;;;;;12.15;57.18;101585.34;5018715;28;20041;-68
2020/12/01 12:22:10;;;;;;;17.70;8.07;;;;;;;11.73;57.91;101592.44;5025378;28;20071;-67
2020/12/01 12:24:35;;;;;;;21.65;10.27;;;;;;;11.68;58.07;101587.28;5022664;28;20030;-68
2020/12/01 12:27:01;;;;;;;25.08;10.57;;;;;;;11.72;57.82;101607.13;5025445;28;20041;-68